Gulf — V2BB5 — position and weather

sailwx.info

Track history (hours):
 
Tides and Currents Weather Stations Pressure Air Temp Water Temp Dewpoint Dewpoint Depression Visibility Wind Speed Wind Dir Waves Ship Positions

Gulf

Last reported at 2016-May-27 23:17 UTC. Time now 2016-May-29 23:03 UTC.
Position N 42°17' E 016°02'.

Length 96 m; draft 5.7 m.

Type: Cargo ship. MMSI: 304320000.

Date/timePositionNaut miles runAvg speedWind from/ knotsBaromVisibWave heightAir tempDewpointWater temp
2016-May-27 23:17N 42°17' E 016°02'6 7.7
2016-May-27 22:31N 42°21' E 015°56'7 7.6
2016-May-27 21:33N 42°27' E 015°49'91 7.6
2016-May-27 09:31N 43°31' E 014°22'7 7.6
2016-May-27 08:33N 43°36' E 014°14'8 7.6
2016-May-27 07:32N 43°42' E 014°07'40 7.8
2016-May-27 02:21N 44°06' E 013°23'6 8.0
2016-May-27 01:33N 44°10' E 013°15'8 7.8
2016-May-27 00:33N 44°17' E 013°10'8 7.8
2016-May-26 23:34N 44°25' E 013°07'8 7.9
2016-May-26 22:33N 44°32' E 013°04'8 7.8
2016-May-26 21:33N 44°39' E 013°00'8 7.6
2016-May-26 20:33N 44°47' E 012°56'8 7.6
2016-May-26 19:34N 44°53' E 012°52'8 7.7
2016-May-26 18:34N 45°00' E 012°47'8 7.6
2016-May-26 17:33N 45°07' E 012°41'8 7.7
2016-May-26 16:33N 45°10' E 012°31'8 7.7
2016-May-26 15:33N 45°13' E 012°22'4 4.1
2016-May-26 14:33N 45°13' E 012°16'0 0.0
2016-May-26 13:31N 45°13' E 012°16'0 0.0
2016-May-26 12:28N 45°13' E 012°16'0 0.0
2016-May-26 11:31N 45°13' E 012°16'0 0.0
2016-May-26 10:31N 45°13' E 012°16'0 0.0
2016-May-26 09:31N 45°13' E 012°16'0 0.0
2016-May-26 08:28N 45°13' E 012°16'0 0.0
2016-May-26 07:31N 45°13' E 012°16'0 0.0
2016-May-26 06:31N 45°13' E 012°16'0 0.0
2016-May-26 05:25N 45°13' E 012°16'0 0.0
2016-May-26 04:31N 45°13' E 012°16'0 0.0
2016-May-26 03:31N 45°13' E 012°16'0 0.0
2016-May-26 02:28N 45°13' E 012°16'0 0.0
2016-May-26 01:31N 45°13' E 012°16'0 0.0
2016-May-26 00:31N 45°13' E 012°16'0 0.0
2016-May-25 23:31N 45°13' E 012°16'0 0.0
2016-May-25 22:33N 45°13' E 012°16'0 0.0
2016-May-25 21:31N 45°13' E 012°16'0 0.0
2016-May-25 20:31N 45°13' E 012°16'0 0.0
2016-May-25 19:31N 45°13' E 012°16'0 0.0
2016-May-25 18:31N 45°13' E 012°16'0 0.0
2016-May-25 17:31N 45°13' E 012°16'0 0.0
2016-May-25 16:31N 45°13' E 012°16'0 0.0
2016-May-25 15:31N 45°13' E 012°16'0 0.0
2016-May-25 14:28N 45°13' E 012°16'0 0.0
2016-May-25 13:31N 45°13' E 012°16'0 0.0
2016-May-25 12:32N 45°13' E 012°16'1 0.6
2016-May-25 11:33N 45°13' E 012°16'3 3.1
2016-May-25 10:33N 45°14' E 012°20'1 1.1
2016-May-25 09:32N 45°14' E 012°22'0 0.0
2016-May-25 08:31N 45°14' E 012°22'0 0.0
2016-May-25 07:31N 45°14' E 012°22'0 0.0
2016-May-25 06:31N 45°14' E 012°22'0 0.0
2016-May-25 05:31N 45°14' E 012°22'0 0.1
2016-May-25 04:31N 45°14' E 012°22'0 0.1
2016-May-25 03:31N 45°14' E 012°22'0 0.0
2016-May-25 02:31N 45°14' E 012°22'0 0.0
2016-May-25 01:31N 45°14' E 012°22'0 0.0
2016-May-25 00:31N 45°14' E 012°22'0 0.0
2016-May-24 23:31N 45°14' E 012°22'0 0.0
2016-May-24 22:31N 45°14' E 012°22'0 0.0
2016-May-24 21:31N 45°14' E 012°22'0 0.1
2016-May-24 20:31N 45°14' E 012°22'0 0.0
2016-May-24 19:31N 45°14' E 012°22'0 0.0
2016-May-24 18:31N 45°14' E 012°22'0 0.0
2016-May-24 17:28N 45°14' E 012°22'0 0.0
2016-May-24 16:31N 45°14' E 012°22'0 0.1
2016-May-24 15:31N 45°14' E 012°22'0 0.1
2016-May-24 14:31N 45°14' E 012°22'0 0.0
2016-May-24 13:33N 45°14' E 012°22'0 0.0
2016-May-24 12:31N 45°14' E 012°22'0 0.0
2016-May-24 11:31N 45°14' E 012°22'0 0.0
2016-May-24 10:31N 45°14' E 012°22'5 5.6
2016-May-24 09:33N 45°16' E 012°29'8 8.3
2016-May-24 08:33N 45°12' E 012°40'8 8.3
2016-May-24 07:33N 45°07' E 012°49'9 8.5
2016-May-24 06:33N 44°59' E 012°54'18 8.6
2016-May-24 04:25N 44°43' E 012°42'7 8.6
2016-May-24 03:34N 44°36' E 012°38'  
2016-May-18 21:16N 44°31' E 012°27'0 0.1
2016-May-18 20:31N 44°31' E 012°26'0 0.0
2016-May-18 18:28N 44°31' E 012°26'0 0.0
2016-May-18 15:13N 44°31' E 012°26'0 0.0
2016-May-18 06:28N 44°31' E 012°27'0 0.0
2016-May-18 04:19N 44°31' E 012°27'0 0.0
2016-May-18 02:31N 44°31' E 012°27'0 0.0
2016-May-18 01:22N 44°31' E 012°27'0 0.0
2016-May-18 00:31N 44°31' E 012°27'0 0.0
2016-May-17 23:31N 44°31' E 012°27'  
Track history (hours):
 
Tides and Currents Weather Stations Pressure Air Temp Water Temp Dewpoint Dewpoint Depression Visibility Wind Speed Wind Dir Waves Ship Positions

Gulf

Last reported at 2016-May-27 23:17 UTC. Time now 2016-May-29 23:03 UTC.
Position N 42°17' E 016°02'.

Length 96 m; draft 5.7 m.

Type: Cargo ship. MMSI: 304320000.

Date/timePositionNaut miles runAvg speedWind from/ knotsBaromVisibWave heightAir tempDewpointWater temp
2016-May-27 23:17N 42°17' E 016°02'6 7.7
2016-May-27 22:31N 42°21' E 015°56'7 7.6
2016-May-27 21:33N 42°27' E 015°49'91 7.6
2016-May-27 09:31N 43°31' E 014°22'7 7.6
2016-May-27 08:33N 43°36' E 014°14'8 7.6
2016-May-27 07:32N 43°42' E 014°07'40 7.8
2016-May-27 02:21N 44°06' E 013°23'6 8.0
2016-May-27 01:33N 44°10' E 013°15'8 7.8
2016-May-27 00:33N 44°17' E 013°10'8 7.8
2016-May-26 23:34N 44°25' E 013°07'8 7.9
2016-May-26 22:33N 44°32' E 013°04'8 7.8
2016-May-26 21:33N 44°39' E 013°00'8 7.6
2016-May-26 20:33N 44°47' E 012°56'8 7.6
2016-May-26 19:34N 44°53' E 012°52'8 7.7
2016-May-26 18:34N 45°00' E 012°47'8 7.6
2016-May-26 17:33N 45°07' E 012°41'8 7.7
2016-May-26 16:33N 45°10' E 012°31'8 7.7
2016-May-26 15:33N 45°13' E 012°22'4 4.1
2016-May-26 14:33N 45°13' E 012°16'0 0.0
2016-May-26 13:31N 45°13' E 012°16'0 0.0
2016-May-26 12:28N 45°13' E 012°16'0 0.0
2016-May-26 11:31N 45°13' E 012°16'0 0.0
2016-May-26 10:31N 45°13' E 012°16'0 0.0
2016-May-26 09:31N 45°13' E 012°16'0 0.0
2016-May-26 08:28N 45°13' E 012°16'0 0.0
2016-May-26 07:31N 45°13' E 012°16'0 0.0
2016-May-26 06:31N 45°13' E 012°16'0 0.0
2016-May-26 05:25N 45°13' E 012°16'0 0.0
2016-May-26 04:31N 45°13' E 012°16'0 0.0
2016-May-26 03:31N 45°13' E 012°16'0 0.0
2016-May-26 02:28N 45°13' E 012°16'0 0.0
2016-May-26 01:31N 45°13' E 012°16'0 0.0
2016-May-26 00:31N 45°13' E 012°16'0 0.0
2016-May-25 23:31N 45°13' E 012°16'0 0.0
2016-May-25 22:33N 45°13' E 012°16'0 0.0
2016-May-25 21:31N 45°13' E 012°16'0 0.0
2016-May-25 20:31N 45°13' E 012°16'0 0.0
2016-May-25 19:31N 45°13' E 012°16'0 0.0
2016-May-25 18:31N 45°13' E 012°16'0 0.0
2016-May-25 17:31N 45°13' E 012°16'0 0.0
2016-May-25 16:31N 45°13' E 012°16'0 0.0
2016-May-25 15:31N 45°13' E 012°16'0 0.0
2016-May-25 14:28N 45°13' E 012°16'0 0.0
2016-May-25 13:31N 45°13' E 012°16'0 0.0
2016-May-25 12:32N 45°13' E 012°16'1 0.6
2016-May-25 11:33N 45°13' E 012°16'3 3.1
2016-May-25 10:33N 45°14' E 012°20'1 1.1
2016-May-25 09:32N 45°14' E 012°22'0 0.0
2016-May-25 08:31N 45°14' E 012°22'0 0.0
2016-May-25 07:31N 45°14' E 012°22'0 0.0
2016-May-25 06:31N 45°14' E 012°22'0 0.0
2016-May-25 05:31N 45°14' E 012°22'0 0.1
2016-May-25 04:31N 45°14' E 012°22'0 0.1
2016-May-25 03:31N 45°14' E 012°22'0 0.0
2016-May-25 02:31N 45°14' E 012°22'0 0.0
2016-May-25 01:31N 45°14' E 012°22'0 0.0
2016-May-25 00:31N 45°14' E 012°22'0 0.0
2016-May-24 23:31N 45°14' E 012°22'0 0.0
2016-May-24 22:31N 45°14' E 012°22'0 0.0
2016-May-24 21:31N 45°14' E 012°22'0 0.1
2016-May-24 20:31N 45°14' E 012°22'0 0.0
2016-May-24 19:31N 45°14' E 012°22'0 0.0
2016-May-24 18:31N 45°14' E 012°22'0 0.0
2016-May-24 17:28N 45°14' E 012°22'0 0.0
2016-May-24 16:31N 45°14' E 012°22'0 0.1
2016-May-24 15:31N 45°14' E 012°22'0 0.1
2016-May-24 14:31N 45°14' E 012°22'0 0.0
2016-May-24 13:33N 45°14' E 012°22'0 0.0
2016-May-24 12:31N 45°14' E 012°22'0 0.0
2016-May-24 11:31N 45°14' E 012°22'0 0.0
2016-May-24 10:31N 45°14' E 012°22'5 5.6
2016-May-24 09:33N 45°16' E 012°29'8 8.3
2016-May-24 08:33N 45°12' E 012°40'8 8.3
2016-May-24 07:33N 45°07' E 012°49'9 8.5
2016-May-24 06:33N 44°59' E 012°54'18 8.6
2016-May-24 04:25N 44°43' E 012°42'7 8.6
2016-May-24 03:34N 44°36' E 012°38'  
2016-May-18 21:16N 44°31' E 012°27'0 0.1
2016-May-18 20:31N 44°31' E 012°26'0 0.0
2016-May-18 18:28N 44°31' E 012°26'0 0.0
2016-May-18 15:13N 44°31' E 012°26'0 0.0
2016-May-18 06:28N 44°31' E 012°27'0 0.0
2016-May-18 04:19N 44°31' E 012°27'0 0.0
2016-May-18 02:31N 44°31' E 012°27'0 0.0
2016-May-18 01:22N 44°31' E 012°27'0 0.0
2016-May-18 00:31N 44°31' E 012°27'0 0.0
2016-May-17 23:31N 44°31' E 012°27'  

Dump ship's entire track history